createdAt,value
2018-02-16T00:01:08.393Z,21.73
2018-02-16T00:03:37.229Z,20.83
2018-02-16T00:06:05.288Z,22.20
2018-02-16T00:08:34.088Z,20.42
2018-02-16T00:11:02.914Z,19.58
2018-02-16T00:13:30.948Z,22.40
2018-02-16T00:15:59.004Z,22.30
2018-02-16T00:18:27.061Z,19.12
2018-02-16T00:20:55.097Z,17.70
2018-02-16T00:23:23.170Z,18.58
2018-02-16T00:25:51.200Z,18.02
2018-02-16T00:28:19.272Z,22.85
2018-02-16T00:30:48.086Z,20.17
2018-02-16T00:33:16.132Z,19.52
2018-02-16T00:35:44.187Z,20.23
2018-02-16T00:38:12.224Z,19.37
2018-02-16T00:40:41.040Z,15.63
2018-02-16T00:43:09.105Z,18.48
2018-02-16T00:45:37.908Z,19.23
2018-02-16T00:48:06.737Z,19.48
2018-02-16T00:50:34.803Z,20.98
2018-02-16T00:53:03.593Z,16.80
2018-02-16T00:55:32.407Z,20.88
2018-02-16T00:58:01.219Z,20.45
2018-02-16T01:00:29.264Z,17.80
2018-02-16T01:02:57.324Z,22.37
2018-02-16T01:05:25.356Z,19.35
2018-02-16T01:07:54.176Z,18.73
2018-02-16T01:10:22.244Z,20.02
2018-02-16T01:12:51.063Z,20.60
2018-02-16T01:15:19.108Z,20.37
2018-02-16T01:17:47.148Z,20.98
2018-02-16T01:20:15.208Z,20.15
2018-02-16T01:22:43.261Z,19.33
2018-02-16T01:25:11.300Z,18.85
2018-02-16T01:27:39.355Z,18.37
2018-02-16T01:30:07.393Z,17.23
2018-02-16T01:32:35.446Z,19.52
2018-02-16T01:35:03.497Z,19.45
2018-02-16T01:37:32.305Z,19.95
2018-02-16T01:40:01.146Z,19.02
2018-02-16T01:42:29.176Z,18.67
2018-02-16T01:44:58.008Z,20.92
2018-02-16T01:47:26.071Z,18.92
2018-02-16T01:50:05.731Z,17.23
2018-02-16T01:52:34.563Z,24.55
2018-02-16T01:55:02.537Z,20.33
2018-02-16T01:57:30.548Z,20.20
2018-02-16T01:59:58.544Z,20.45
2018-02-16T02:02:26.588Z,24.35
2018-02-16T02:04:54.583Z,21.33
2018-02-16T02:07:22.591Z,21.75
2018-02-16T02:09:50.588Z,19.98
2018-02-16T02:12:19.360Z,21.42
2018-02-16T02:14:47.431Z,22.55
2018-02-16T02:17:15.424Z,17.33
2018-02-16T02:19:43.443Z,20.23
2018-02-16T02:22:12.209Z,19.10
2018-02-16T02:24:40.211Z,18.23
2018-02-16T02:27:08.217Z,19.77
2018-02-16T02:29:36.975Z,20.50
2018-02-16T02:32:04.997Z,20.88
2018-02-16T02:34:33.757Z,19.98
2018-02-16T02:37:01.769Z,21.00
2018-02-16T02:39:30.537Z,18.37
2018-02-16T02:41:58.540Z,19.98
2018-02-16T02:44:26.558Z,18.98
2018-02-16T02:46:55.404Z,21.45
2018-02-16T02:49:23.401Z,20.10
2018-02-16T02:51:51.423Z,18.48
2018-02-16T02:54:19.445Z,20.55
2018-02-16T02:56:47.444Z,18.52
2018-02-16T02:59:15.456Z,19.80
2018-02-16T03:01:44.251Z,20.55
2018-02-16T03:04:12.224Z,18.35
2018-02-16T03:06:40.236Z,19.80
2018-02-16T03:09:08.248Z,22.13
2018-02-16T03:11:36.240Z,20.60
2018-02-16T03:14:04.248Z,20.42
2018-02-16T03:16:32.256Z,17.40
2018-02-16T03:19:01.044Z,21.25
2018-02-16T03:21:29.040Z,18.50
2018-02-16T03:23:57.811Z,21.05
2018-02-16T03:26:25.800Z,19.50
2018-02-16T03:28:53.804Z,19.37
2018-02-16T03:31:22.572Z,19.60
2018-02-16T03:33:50.560Z,19.92
2018-02-16T03:36:20.258Z,17.80
2018-02-16T03:38:48.276Z,19.62
2018-02-16T03:41:16.271Z,18.37
2018-02-16T03:43:45.053Z,20.67
2018-02-16T03:46:13.052Z,18.25
2018-02-16T03:48:41.823Z,20.60
2018-02-16T03:51:09.837Z,20.73
2018-02-16T03:53:38.616Z,21.08
2018-02-16T03:56:06.620Z,21.83
2018-02-16T03:58:35.387Z,21.15
2018-02-16T04:01:03.408Z,20.48
2018-02-16T04:03:32.188Z,18.42
2018-02-16T04:06:00.192Z,19.02
2018-02-16T04:08:28.965Z,20.15
2018-02-16T04:10:56.957Z,17.30
2018-02-16T04:13:24.965Z,20.20
2018-02-16T04:15:53.728Z,20.77
2018-02-16T04:18:21.736Z,18.08
2018-02-16T04:20:50.520Z,22.55
2018-02-16T04:23:18.520Z,20.90
2018-02-16T04:25:47.289Z,18.67
2018-02-16T04:28:15.280Z,20.20
2018-02-16T04:30:43.288Z,21.05
2018-02-16T04:33:12.064Z,18.90
2018-02-16T04:35:40.068Z,20.12
2018-02-16T04:38:08.828Z,20.30
2018-02-16T04:40:36.839Z,19.75
2018-02-16T04:43:04.859Z,16.05
2018-02-16T04:45:32.888Z,20.42
2018-02-16T04:48:00.908Z,19.25
2018-02-16T04:50:29.684Z,19.00
2018-02-16T04:52:57.696Z,21.12
2018-02-16T04:55:26.472Z,19.42
2018-02-16T04:57:54.481Z,19.92
2018-02-16T05:00:23.253Z,18.48
2018-02-16T05:02:51.248Z,16.77
2018-02-16T05:05:20.036Z,17.83
2018-02-16T05:07:48.036Z,19.75
2018-02-16T05:10:16.827Z,22.02
2018-02-16T05:12:44.832Z,19.12
2018-02-16T05:15:12.838Z,19.90
2018-02-16T05:17:40.852Z,17.77
2018-02-16T05:20:08.849Z,19.33
2018-02-16T05:22:36.864Z,19.92
2018-02-16T05:25:05.637Z,18.52
2018-02-16T05:27:33.632Z,19.42
2018-02-16T05:30:02.447Z,20.40
2018-02-16T05:32:31.204Z,20.73
2018-02-16T05:34:59.212Z,18.98
2018-02-16T05:37:27.224Z,21.00
2018-02-16T05:39:55.849Z,21.23
2018-02-16T05:42:23.860Z,24.17
2018-02-16T05:44:51.852Z,18.95
2018-02-16T05:47:19.860Z,19.30
2018-02-16T05:49:48.628Z,20.27
2018-02-16T05:52:16.633Z,20.67
2018-02-16T05:54:45.484Z,21.15
2018-02-16T05:57:13.488Z,21.17
2018-02-16T05:59:41.490Z,24.40
2018-02-16T06:02:10.487Z,19.87
2018-02-16T06:04:38.504Z,22.45
2018-02-16T06:07:06.497Z,23.77
2018-02-16T06:09:34.512Z,22.95
2018-02-16T06:12:02.516Z,24.17
2018-02-16T06:14:30.526Z,25.15
2018-02-16T06:16:59.288Z,25.90
2018-02-16T06:19:27.297Z,25.70
2018-02-16T06:21:56.119Z,26.30
2018-02-16T06:24:24.920Z,27.13
2018-02-16T06:26:52.934Z,24.73
2018-02-16T06:29:20.940Z,24.10
2018-02-16T06:31:48.945Z,23.38
2018-02-16T06:34:17.722Z,21.83
2018-02-16T06:36:45.733Z,23.95
2018-02-16T06:39:13.732Z,26.20
2018-02-16T06:41:41.724Z,25.00
2018-02-16T06:44:10.665Z,26.35
2018-02-16T06:46:38.668Z,25.10
2018-02-16T06:49:06.680Z,23.70
2018-02-16T06:51:35.448Z,22.13
2018-02-16T06:54:03.464Z,23.90
2018-02-16T06:56:31.459Z,24.85
2018-02-16T06:58:59.465Z,25.40
2018-02-16T07:01:27.466Z,22.52
2018-02-16T07:03:55.492Z,25.10
2018-02-16T07:06:24.266Z,24.30
2018-02-16T07:08:52.267Z,23.83
2018-02-16T07:11:21.036Z,24.73
2018-02-16T07:13:49.054Z,25.50
2018-02-16T07:16:17.040Z,20.60
2018-02-16T07:18:45.831Z,22.67
2018-02-16T07:21:14.614Z,25.90
2018-02-16T07:23:42.604Z,25.75
2018-02-16T07:26:10.612Z,23.02
2018-02-16T07:28:38.613Z,23.20
2018-02-16T07:31:06.634Z,20.92
2018-02-16T07:33:34.617Z,21.73
2018-02-16T07:36:02.629Z,20.62
2018-02-16T07:38:31.389Z,20.70
2018-02-16T07:40:59.392Z,20.88
2018-02-16T07:43:27.408Z,20.25
2018-02-16T07:45:56.188Z,22.48
2018-02-16T07:48:24.183Z,21.20
2018-02-16T07:50:52.966Z,21.37
2018-02-16T07:53:20.963Z,19.83
2018-02-16T07:55:49.765Z,21.65
2018-02-16T07:58:18.548Z,20.98
2018-02-16T08:00:46.560Z,18.85
2018-02-16T08:03:15.311Z,18.12
2018-02-16T08:05:43.319Z,21.75
2018-02-16T08:08:11.333Z,18.37
2018-02-16T08:10:39.345Z,19.60
2018-02-16T08:13:07.340Z,16.65
2018-02-16T08:15:35.339Z,17.92
2018-02-16T08:18:03.360Z,21.65
2018-02-16T08:20:32.115Z,21.65
2018-02-16T08:23:00.134Z,17.58
2018-02-16T08:25:28.892Z,17.70
2018-02-16T08:27:56.905Z,16.73
2018-02-16T08:30:24.900Z,21.15
2018-02-16T08:32:53.682Z,18.73
2018-02-16T08:35:21.684Z,18.33
2018-02-16T08:37:50.440Z,14.93
2018-02-16T08:40:18.445Z,10.00
2018-02-16T08:42:46.444Z,12.20
2018-02-16T08:45:15.218Z,13.62
2018-02-16T08:47:43.221Z,10.70
2018-02-16T08:50:11.980Z,10.13
2018-02-16T08:52:39.988Z,10.50
2018-02-16T08:55:07.980Z,12.37
2018-02-16T08:57:36.018Z,13.82
2018-02-16T09:00:04.012Z,14.20
2018-02-16T09:02:32.024Z,13.10
2018-02-16T09:05:00.038Z,14.75
2018-02-16T09:07:28.784Z,14.05
2018-02-16T09:09:56.805Z,11.68
2018-02-16T09:12:25.568Z,11.77
2018-02-16T09:14:53.609Z,12.45
2018-02-16T09:17:21.623Z,10.23
2018-02-16T09:19:49.613Z,10.00
2018-02-16T09:22:17.632Z,11.65
2018-02-16T09:24:46.404Z,11.68
2018-02-16T09:27:14.408Z,11.98
2018-02-16T09:29:42.430Z,12.45
2018-02-16T09:32:10.422Z,12.55
2018-02-16T09:34:38.428Z,12.90
2018-02-16T09:37:07.632Z,12.13
2018-02-16T09:39:36.536Z,8.63
2018-02-16T09:42:04.932Z,12.37
2018-02-16T09:44:32.945Z,10.52
2018-02-16T09:47:00.945Z,11.43
2018-02-16T09:49:29.719Z,11.38
2018-02-16T09:51:57.749Z,11.32
2018-02-16T09:54:25.762Z,14.35
2018-02-16T09:56:53.788Z,11.98
2018-02-16T09:59:22.552Z,9.50
2018-02-16T10:01:50.561Z,11.27
2018-02-16T10:04:18.576Z,10.23
2018-02-16T10:06:46.605Z,10.07
2018-02-16T10:09:14.612Z,10.45
2018-02-16T10:11:43.372Z,9.82
2018-02-16T10:14:11.600Z,11.45
2018-02-16T10:16:39.592Z,11.02
2018-02-16T10:19:09.276Z,12.73
2018-02-16T10:21:37.284Z,8.65
2018-02-16T10:24:05.300Z,8.18
2018-02-16T10:26:33.280Z,10.05
2018-02-16T10:29:01.282Z,14.05
2018-02-16T10:31:29.275Z,7.70
2018-02-16T10:33:57.267Z,13.43
2018-02-16T10:36:25.281Z,12.37
2018-02-16T10:38:53.282Z,9.98
2018-02-16T10:41:22.052Z,12.35
2018-02-16T10:43:50.060Z,11.98
2018-02-16T10:46:18.825Z,11.00
2018-02-16T10:48:46.837Z,8.80
2018-02-16T10:51:14.835Z,10.82
2018-02-16T10:53:43.608Z,10.65
2018-02-16T10:56:11.605Z,11.55
2018-02-16T10:58:40.380Z,10.15
2018-02-16T11:01:14.172Z,11.00
2018-02-16T11:03:42.179Z,11.05
2018-02-16T11:06:13.154Z,11.20
2018-02-16T11:08:48.392Z,9.23
2018-02-16T11:11:16.404Z,8.65
2018-02-16T11:13:45.159Z,9.38
2018-02-16T11:16:13.161Z,9.20
2018-02-16T11:18:41.147Z,9.70
2018-02-16T11:21:09.157Z,11.25
2018-02-16T11:23:37.940Z,9.52
2018-02-16T11:26:05.936Z,10.63
2018-02-16T11:28:34.704Z,11.63
2018-02-16T11:31:02.713Z,11.20
2018-02-16T11:33:31.480Z,9.88
2018-02-16T11:35:59.487Z,10.88
2018-02-16T11:38:28.265Z,10.65
2018-02-16T11:40:56.281Z,10.98
2018-02-16T11:43:25.040Z,11.23
2018-02-16T11:45:53.052Z,10.70
2018-02-16T11:48:21.047Z,8.95
2018-02-16T11:50:49.814Z,10.75
2018-02-16T11:53:17.816Z,7.85
2018-02-16T11:55:45.828Z,10.50
2018-02-16T11:58:13.816Z,9.90
2018-02-16T12:00:41.824Z,10.90
2018-02-16T12:03:09.808Z,9.02
2018-02-16T12:05:37.829Z,9.15
2018-02-16T12:08:05.829Z,10.48
2018-02-16T12:10:34.592Z,9.88
2018-02-16T12:13:02.596Z,9.32
2018-02-16T12:15:30.602Z,9.32
2018-02-16T12:17:59.372Z,10.40
2018-02-16T12:20:27.376Z,10.60
2018-02-16T12:22:56.153Z,9.55
2018-02-16T12:25:24.148Z,10.55
2018-02-16T12:27:52.157Z,9.30
2018-02-16T12:30:20.164Z,9.38
2018-02-16T12:32:48.167Z,10.52
2018-02-16T12:35:16.168Z,10.27
2018-02-16T12:37:44.175Z,9.15
2018-02-16T12:40:12.952Z,7.87
2018-02-16T12:42:40.936Z,8.40
2018-02-16T12:45:08.949Z,8.38
2018-02-16T12:47:37.712Z,8.68
2018-02-16T12:50:05.712Z,9.80
2018-02-16T12:52:34.492Z,8.85
2018-02-16T12:55:02.485Z,9.25
2018-02-16T12:57:30.489Z,9.38
2018-02-16T12:59:59.244Z,9.43
2018-02-16T13:02:27.256Z,10.20
2018-02-16T13:04:55.260Z,9.98
2018-02-16T13:07:24.020Z,9.27
2018-02-16T13:09:52.019Z,8.15
2018-02-16T13:12:20.012Z,9.35
2018-02-16T13:14:48.793Z,9.43
2018-02-16T13:17:16.771Z,8.35
2018-02-16T13:19:44.772Z,8.15
2018-02-16T13:22:12.759Z,8.82
2018-02-16T13:24:41.532Z,8.50
2018-02-16T13:27:09.541Z,9.48
2018-02-16T13:29:37.532Z,8.77
2018-02-16T13:32:06.291Z,7.70
2018-02-16T13:34:34.292Z,7.03
2018-02-16T13:37:02.557Z,7.70
2018-02-16T13:39:30.552Z,8.23
2018-02-16T13:41:58.565Z,7.82
2018-02-16T13:44:26.547Z,9.27
2018-02-16T13:46:55.336Z,8.10
2018-02-16T13:49:24.824Z,9.25
2018-02-16T13:51:52.828Z,8.85
2018-02-16T13:54:20.819Z,9.57
2018-02-16T13:56:48.825Z,10.05
2018-02-16T13:59:16.832Z,7.50
2018-02-16T14:01:44.819Z,9.45
2018-02-16T14:04:12.825Z,8.77
2018-02-16T14:06:40.828Z,7.68
2018-02-16T14:09:08.829Z,8.40
2018-02-16T14:11:37.584Z,8.10
2018-02-16T14:14:06.355Z,8.32
2018-02-16T14:16:34.344Z,9.93
2018-02-16T14:19:02.354Z,9.30
2018-02-16T14:21:30.372Z,10.60
2018-02-16T14:23:59.152Z,8.10
2018-02-16T14:26:28.673Z,10.32
2018-02-16T14:28:56.668Z,9.48
2018-02-16T14:31:24.667Z,8.00
2018-02-16T14:33:53.450Z,8.98
2018-02-16T14:36:21.452Z,9.02
2018-02-16T14:38:50.225Z,10.27
2018-02-16T14:41:18.224Z,9.15
2018-02-16T14:43:46.995Z,8.63
2018-02-16T14:46:15.005Z,7.55
2018-02-16T14:48:42.988Z,9.45
2018-02-16T14:51:11.004Z,10.52
2018-02-16T14:53:38.996Z,9.48
2018-02-16T14:56:07.047Z,9.90
2018-02-16T14:58:35.420Z,10.70
2018-02-16T15:01:03.419Z,9.90
2018-02-16T15:03:32.481Z,9.73
2018-02-16T15:06:00.472Z,12.07
2018-02-16T15:08:28.477Z,10.73
2018-02-16T15:10:56.494Z,10.85
2018-02-16T15:13:24.540Z,9.20
2018-02-16T15:15:52.508Z,9.40
2018-02-16T15:18:20.565Z,10.57
2018-02-16T15:20:48.568Z,10.32
2018-02-16T15:23:16.588Z,12.30
2018-02-16T15:25:45.499Z,11.20
2018-02-16T15:28:14.240Z,10.40
2018-02-16T15:30:42.253Z,10.50
2018-02-16T15:33:10.249Z,13.05
2018-02-16T15:35:39.024Z,10.70
2018-02-16T15:38:07.043Z,9.40
2018-02-16T15:40:35.808Z,9.60
2018-02-16T15:43:03.816Z,10.38
2018-02-16T15:45:32.583Z,11.38
2018-02-16T15:48:00.594Z,9.85
2018-02-16T15:50:28.581Z,8.75
2018-02-16T15:52:56.591Z,9.45
2018-02-16T15:55:24.576Z,8.82
2018-02-16T15:57:52.588Z,11.45
2018-02-16T16:00:20.606Z,9.77
2018-02-16T16:02:48.595Z,9.23
2018-02-16T16:05:17.378Z,8.57
2018-02-16T16:07:45.381Z,11.50
2018-02-16T16:10:14.148Z,11.38
2018-02-16T16:12:42.172Z,11.20
2018-02-16T16:15:10.957Z,9.05
2018-02-16T16:17:38.968Z,10.68
2018-02-16T16:20:06.960Z,8.63
2018-02-16T16:22:34.967Z,9.65
2018-02-16T16:25:02.964Z,11.63
2018-02-16T16:27:30.964Z,9.90
2018-02-16T16:29:58.969Z,12.13
2018-02-16T16:32:27.723Z,9.18
2018-02-16T16:34:55.732Z,10.10
2018-02-16T16:37:23.759Z,11.23
2018-02-16T16:39:51.753Z,12.55
2018-02-16T16:42:19.811Z,11.15
2018-02-16T16:44:47.788Z,10.60
2018-02-16T16:47:15.821Z,9.20
2018-02-16T16:49:43.816Z,10.68
2018-02-16T16:52:11.836Z,10.57
2018-02-16T16:54:40.604Z,8.63
2018-02-16T16:57:08.604Z,10.88
2018-02-16T16:59:36.615Z,11.10
2018-02-16T17:02:04.618Z,9.60
2018-02-16T17:04:32.616Z,9.15
2018-02-16T17:07:00.613Z,9.88
2018-02-16T17:09:28.616Z,7.70
2018-02-16T17:11:57.408Z,8.90
2018-02-16T17:14:25.400Z,10.52
2018-02-16T17:16:54.196Z,9.35
2018-02-16T17:19:22.180Z,8.05
2018-02-16T17:21:50.207Z,8.98
2018-02-16T17:24:18.214Z,8.95
2018-02-16T17:26:46.212Z,9.02
2018-02-16T17:29:14.224Z,10.32
2018-02-16T17:31:42.988Z,10.18
2018-02-16T17:34:11.000Z,10.00
2018-02-16T17:36:39.783Z,10.95
2018-02-16T17:39:07.784Z,9.20
2018-02-16T17:41:35.786Z,8.98
2018-02-16T17:44:03.792Z,10.73
2018-02-16T17:46:31.802Z,10.25
2018-02-16T17:48:59.808Z,10.18
2018-02-16T17:51:27.804Z,8.98
2018-02-16T17:53:56.569Z,8.38
2018-02-16T17:56:24.572Z,9.10
2018-02-16T17:58:52.592Z,10.20
2018-02-16T18:01:20.602Z,12.80
2018-02-16T18:03:48.666Z,10.38
2018-02-16T18:06:16.654Z,10.68
2018-02-16T18:08:44.678Z,12.73
2018-02-16T18:11:12.690Z,11.48
2018-02-16T18:13:41.449Z,11.15
2018-02-16T18:16:09.461Z,10.00
2018-02-16T18:18:38.220Z,11.02
2018-02-16T18:21:06.230Z,10.77
2018-02-16T18:23:35.723Z,9.98
2018-02-16T18:26:03.739Z,12.15
2018-02-16T18:28:32.520Z,10.32
2018-02-16T18:31:00.520Z,11.40
2018-02-16T18:33:28.540Z,10.20
2018-02-16T18:35:56.543Z,9.55
2018-02-16T18:38:24.549Z,10.70
2018-02-16T18:40:52.568Z,8.90
2018-02-16T18:43:21.340Z,11.52
2018-02-16T18:45:49.362Z,11.88
2018-02-16T18:48:18.112Z,9.88
2018-02-16T18:50:46.116Z,8.63
2018-02-16T18:53:14.131Z,11.32
2018-02-16T18:55:42.883Z,9.20
2018-02-16T18:58:10.901Z,10.63
2018-02-16T19:00:39.648Z,9.32
2018-02-16T19:03:07.682Z,8.63
2018-02-16T19:05:36.461Z,10.13
2018-02-16T19:08:04.481Z,10.57
2018-02-16T19:10:32.480Z,9.20
2018-02-16T19:13:00.501Z,9.23
2018-02-16T19:15:28.484Z,8.27
2018-02-16T19:17:56.504Z,11.40
2018-02-16T19:20:24.514Z,8.80
2018-02-16T19:22:52.529Z,10.43
2018-02-16T19:25:20.524Z,11.23
2018-02-16T19:27:48.540Z,10.60
2018-02-16T19:30:16.540Z,9.77
2018-02-16T19:32:44.572Z,10.45
2018-02-16T19:35:12.596Z,9.02
2018-02-16T19:37:40.596Z,10.02
2018-02-16T19:40:08.617Z,10.82
2018-02-16T19:42:36.612Z,11.38
2018-02-16T19:45:04.615Z,9.10
2018-02-16T19:47:33.367Z,8.73
2018-02-16T19:50:01.377Z,9.95
2018-02-16T19:52:29.385Z,9.35
2018-02-16T19:54:57.384Z,8.73
2018-02-16T19:57:25.388Z,8.88
2018-02-16T19:59:53.444Z,9.00
2018-02-16T20:02:21.465Z,10.20
2018-02-16T20:04:49.456Z,9.52
2018-02-16T20:07:17.466Z,11.80
2018-02-16T20:09:46.244Z,9.00
2018-02-16T20:12:14.274Z,11.35
2018-02-16T20:14:42.256Z,11.57
2018-02-16T20:17:10.288Z,11.38
2018-02-16T20:19:38.301Z,12.30
2018-02-16T20:22:07.073Z,9.40
2018-02-16T20:24:35.084Z,7.97
2018-02-16T20:27:03.095Z,9.48
2018-02-16T20:29:31.117Z,10.57
2018-02-16T20:31:59.131Z,9.52
2018-02-16T20:34:27.120Z,10.98
2018-02-16T20:36:55.908Z,9.45
2018-02-16T20:39:24.735Z,10.80
2018-02-16T20:41:52.753Z,13.45
2018-02-16T20:44:20.774Z,11.45
2018-02-16T20:46:49.560Z,9.15
2018-02-16T20:49:17.704Z,12.52
2018-02-16T20:51:45.711Z,11.85
2018-02-16T20:54:13.727Z,11.25
2018-02-16T20:56:42.532Z,9.82
2018-02-16T20:59:11.304Z,13.70
2018-02-16T21:01:39.328Z,11.10
2018-02-16T21:04:08.090Z,12.07
2018-02-16T21:06:36.104Z,9.73
2018-02-16T21:09:04.894Z,10.05
2018-02-16T21:11:32.897Z,12.70
2018-02-16T21:14:01.672Z,13.60
2018-02-16T21:16:29.668Z,10.30
2018-02-16T21:18:58.443Z,11.68
2018-02-16T21:21:26.608Z,12.93
2018-02-16T21:23:54.629Z,13.30
2018-02-16T21:26:22.639Z,12.18
2018-02-16T21:28:50.643Z,10.68
2018-02-16T21:31:18.656Z,11.60
2018-02-16T21:33:46.662Z,12.50
2018-02-16T21:36:14.676Z,11.93
2018-02-16T21:38:42.686Z,12.18
2018-02-16T21:41:10.728Z,12.85
2018-02-16T21:43:39.495Z,11.35
2018-02-16T21:46:07.513Z,10.10
2018-02-16T21:48:36.280Z,14.00
2018-02-16T21:51:04.285Z,11.32
2018-02-16T21:53:33.073Z,11.98
2018-02-16T21:56:01.081Z,13.10
2018-02-16T21:58:29.900Z,13.20
2018-02-16T22:00:57.909Z,13.75
2018-02-16T22:03:25.916Z,13.68
2018-02-16T22:05:53.932Z,13.25
2018-02-16T22:08:22.696Z,16.40
2018-02-16T22:10:50.729Z,15.05
2018-02-16T22:13:18.716Z,14.48
2018-02-16T22:15:46.748Z,14.77
2018-02-16T22:18:14.748Z,13.45
2018-02-16T22:20:43.520Z,14.90
2018-02-16T22:23:11.521Z,12.37
2018-02-16T22:25:39.553Z,13.15
2018-02-16T22:28:07.572Z,12.10
2018-02-16T22:30:35.584Z,13.70
2018-02-16T22:33:04.364Z,14.02
2018-02-16T22:35:32.375Z,11.02
2018-02-16T22:38:01.139Z,13.75
2018-02-16T22:40:29.481Z,12.45
2018-02-16T22:42:57.477Z,13.68
2018-02-16T22:45:25.491Z,14.18
2018-02-16T22:47:57.510Z,13.88
2018-02-16T22:50:25.668Z,11.98
2018-02-16T22:52:53.692Z,13.52
2018-02-16T22:55:22.515Z,11.12
2018-02-16T22:57:50.539Z,11.43
2018-02-16T23:00:18.557Z,13.40
2018-02-16T23:02:46.596Z,13.07
2018-02-16T23:05:14.658Z,12.27
2018-02-16T23:07:43.385Z,11.65
2018-02-16T23:10:11.393Z,12.05
2018-02-16T23:12:40.172Z,13.02
2018-02-16T23:15:08.964Z,14.10
2018-02-16T23:17:36.976Z,12.52
2018-02-16T23:20:05.774Z,11.77
2018-02-16T23:22:34.548Z,11.52
2018-02-16T23:25:02.558Z,11.88
2018-02-16T23:27:31.340Z,11.63
2018-02-16T23:29:59.344Z,13.10
2018-02-16T23:32:28.250Z,13.40
2018-02-16T23:34:57.036Z,12.80
2018-02-16T23:37:25.029Z,11.82
2018-02-16T23:39:53.808Z,10.23
2018-02-16T23:42:21.808Z,12.55
2018-02-16T23:44:50.553Z,11.52
2018-02-16T23:47:18.583Z,12.13
2018-02-16T23:49:46.588Z,14.27
2018-02-16T23:52:14.593Z,13.00
2018-02-16T23:54:42.593Z,11.25
2018-02-16T23:57:11.374Z,10.90
2018-02-16T23:59:39.383Z,14.35
